createdAt,value
2018-10-12T00:02:29.990Z,18.60
2018-10-12T00:05:33.472Z,16.90
2018-10-12T00:08:37.134Z,18.33
2018-10-12T00:11:40.854Z,26.30
2018-10-12T00:14:44.383Z,18.50
2018-10-12T00:17:47.899Z,23.23
2018-10-12T00:20:51.563Z,18.77
2018-10-12T00:23:55.323Z,19.40
2018-10-12T00:26:58.989Z,17.20
2018-10-12T00:30:02.639Z,16.73
2018-10-12T00:33:06.323Z,18.80
2018-10-12T00:36:09.864Z,19.70
2018-10-12T00:39:13.459Z,21.47
2018-10-12T00:42:17.078Z,19.53
2018-10-12T00:45:20.794Z,20.13
2018-10-12T00:48:24.318Z,19.07
2018-10-12T00:51:27.840Z,21.80
2018-10-12T00:54:31.444Z,18.70
2018-10-12T00:57:35.150Z,17.90
2018-10-12T01:00:38.779Z,19.33
2018-10-12T01:03:42.283Z,22.00
2018-10-12T01:06:46.045Z,18.30
2018-10-12T01:09:49.593Z,17.63
2018-10-12T01:12:53.213Z,20.03
2018-10-12T01:15:56.898Z,18.33
2018-10-12T01:19:00.580Z,18.87
2018-10-12T01:22:04.104Z,20.57
2018-10-12T01:25:08.599Z,22.47
2018-10-12T01:28:12.314Z,20.27
2018-10-12T01:31:15.986Z,20.67
2018-10-12T01:34:19.574Z,17.23
2018-10-12T01:37:23.514Z,17.97
2018-10-12T01:40:27.218Z,17.27
2018-10-12T01:43:30.820Z,23.90
2018-10-12T01:46:34.402Z,17.70
2018-10-12T01:49:38.457Z,16.83
2018-10-12T01:52:41.952Z,19.20
2018-10-12T01:55:45.438Z,18.63
2018-10-12T01:58:49.038Z,20.43
2018-10-12T02:01:52.579Z,19.43
2018-10-12T02:04:56.179Z,18.67
2018-10-12T02:07:59.817Z,18.70
2018-10-12T02:11:03.568Z,16.40
2018-10-12T02:14:07.185Z,18.13
2018-10-12T02:17:10.699Z,23.60
2018-10-12T02:20:14.343Z,17.73
2018-10-12T02:23:17.911Z,18.90
2018-10-12T02:26:21.542Z,20.60
2018-10-12T02:29:25.158Z,19.47
2018-10-12T02:32:28.813Z,18.17
2018-10-12T02:35:32.534Z,14.70
2018-10-12T02:38:36.060Z,17.13
2018-10-12T02:41:39.627Z,21.87
2018-10-12T02:44:43.177Z,15.70
2018-10-12T02:47:46.854Z,17.40
2018-10-12T02:50:50.546Z,16.13
2018-10-12T02:53:54.202Z,16.10
2018-10-12T02:56:57.879Z,14.53
2018-10-12T03:00:01.489Z,19.30
2018-10-12T03:03:05.180Z,20.27
2018-10-12T03:06:08.899Z,16.53
2018-10-12T03:09:13.120Z,17.83
2018-10-12T03:12:16.673Z,20.57
2018-10-12T03:15:20.313Z,20.47
2018-10-12T03:18:23.909Z,15.73
2018-10-12T03:21:27.560Z,16.83
2018-10-12T03:24:31.125Z,15.57
2018-10-12T03:27:44.543Z,18.67
2018-10-12T03:30:48.354Z,19.10
2018-10-12T03:33:51.949Z,17.27
2018-10-12T03:36:55.727Z,16.37
2018-10-12T03:39:59.413Z,15.87
2018-10-12T03:43:02.965Z,16.70
2018-10-12T03:46:06.668Z,23.90
2018-10-12T03:49:10.355Z,17.40
2018-10-12T03:52:13.920Z,18.40
2018-10-12T03:55:17.449Z,16.73
2018-10-12T03:58:21.116Z,15.67
2018-10-12T04:01:24.662Z,14.60
2018-10-12T04:04:28.289Z,15.73
2018-10-12T04:07:31.823Z,16.67
2018-10-12T04:10:35.437Z,18.80
2018-10-12T04:13:39.069Z,15.33
2018-10-12T04:16:42.675Z,17.90
2018-10-12T04:19:46.220Z,18.63
2018-10-12T04:22:49.859Z,21.60
2018-10-12T04:25:53.436Z,19.10
2018-10-12T04:28:56.969Z,16.80
2018-10-12T04:32:00.489Z,18.03
2018-10-12T04:35:04.115Z,17.57
2018-10-12T04:38:07.796Z,15.20
2018-10-12T04:41:14.848Z,18.10
2018-10-12T04:44:18.505Z,20.27
2018-10-12T04:47:25.129Z,20.50
2018-10-12T04:50:28.751Z,17.43
2018-10-12T04:53:32.482Z,18.57
2018-10-12T04:56:36.076Z,16.13
2018-10-12T04:59:39.741Z,19.60
2018-10-12T05:02:43.356Z,17.00
2018-10-12T05:05:46.993Z,19.43
2018-10-12T05:08:50.776Z,14.80
2018-10-12T05:11:54.396Z,15.20
2018-10-12T05:14:58.213Z,15.13
2018-10-12T05:18:01.869Z,16.07
2018-10-12T05:21:05.615Z,18.60
2018-10-12T05:24:09.166Z,17.90
2018-10-12T05:27:13.239Z,17.00
2018-10-12T05:30:16.957Z,15.60
2018-10-12T05:33:20.561Z,15.97
2018-10-12T05:36:24.385Z,15.17
2018-10-12T05:39:27.998Z,13.27
2018-10-12T05:42:31.961Z,13.47
2018-10-12T05:45:35.576Z,16.40
2018-10-12T05:48:50.413Z,17.60
2018-10-12T05:51:54.068Z,15.27
2018-10-12T05:54:58.397Z,14.77
2018-10-12T05:58:02.141Z,16.20
2018-10-12T06:01:05.776Z,14.53
2018-10-12T06:04:09.465Z,13.40
2018-10-12T06:07:13.150Z,15.60
2018-10-12T06:10:16.749Z,14.87
2018-10-12T06:13:20.290Z,13.90
2018-10-12T06:16:24.081Z,12.73
2018-10-12T06:19:27.600Z,14.07
2018-10-12T06:22:31.143Z,13.57
2018-10-12T06:25:34.906Z,13.87
2018-10-12T06:28:38.565Z,13.30
2018-10-12T06:31:42.159Z,13.77
2018-10-12T06:34:45.764Z,14.70
2018-10-12T06:37:49.302Z,13.93
2018-10-12T06:40:52.918Z,13.70
2018-10-12T06:43:56.436Z,15.87
2018-10-12T06:47:00.080Z,13.20
2018-10-12T06:50:03.829Z,12.33
2018-10-12T06:53:07.873Z,11.63
2018-10-12T06:56:11.499Z,12.90
2018-10-12T06:59:15.314Z,12.93
2018-10-12T07:02:20.180Z,11.90
2018-10-12T07:05:23.766Z,16.20
2018-10-12T07:08:27.496Z,15.03
2018-10-12T07:11:31.128Z,12.70
2018-10-12T07:14:35.432Z,13.57
2018-10-12T07:17:38.918Z,13.13
2018-10-12T07:20:42.469Z,9.67
2018-10-12T07:23:45.989Z,10.73
2018-10-12T07:26:49.596Z,13.13
2018-10-12T07:29:53.187Z,13.93
2018-10-12T07:32:56.935Z,12.40
2018-10-12T07:36:01.164Z,15.23
2018-10-12T07:39:05.747Z,11.07
2018-10-12T07:42:09.279Z,12.10
2018-10-12T07:45:12.922Z,10.47
2018-10-12T07:48:16.635Z,12.73
2018-10-12T07:51:21.571Z,11.70
2018-10-12T07:54:25.165Z,11.40
2018-10-12T07:57:30.325Z,11.50
2018-10-12T08:00:34.078Z,11.87
2018-10-12T08:03:37.606Z,14.17
2018-10-12T08:06:41.258Z,14.90
2018-10-12T08:09:44.822Z,11.30
2018-10-12T08:12:48.383Z,15.47
2018-10-12T08:15:55.784Z,11.63
2018-10-12T08:18:59.391Z,18.20
2018-10-12T08:22:03.080Z,13.50
2018-10-12T08:25:07.123Z,12.10
2018-10-12T08:28:10.804Z,15.30
2018-10-12T08:31:14.417Z,12.90
2018-10-12T08:34:18.074Z,15.80
2018-10-12T08:37:21.705Z,12.43
2018-10-12T08:40:25.331Z,9.73
2018-10-12T08:43:28.949Z,16.27
2018-10-12T08:46:42.215Z,12.80
2018-10-12T08:49:45.771Z,12.27
2018-10-12T08:52:49.352Z,12.80
2018-10-12T08:55:53.907Z,12.60
2018-10-12T08:58:57.551Z,12.83
2018-10-12T09:02:01.181Z,8.43
2018-10-12T09:05:04.815Z,9.00
2018-10-12T09:08:08.401Z,9.23
2018-10-12T09:11:11.958Z,7.83
2018-10-12T09:14:15.643Z,8.90
2018-10-12T09:17:19.241Z,8.07
2018-10-12T09:20:22.874Z,11.10
2018-10-12T09:23:26.300Z,8.13
2018-10-12T09:26:30.176Z,5.53
2018-10-12T09:29:33.780Z,8.13
2018-10-12T09:32:37.354Z,7.20
2018-10-12T09:35:40.941Z,9.07
2018-10-12T09:38:44.500Z,8.70
2018-10-12T09:41:48.019Z,5.90
2018-10-12T09:44:52.006Z,4.63
2018-10-12T09:47:55.551Z,6.17
2018-10-12T09:50:59.191Z,5.70
2018-10-12T09:54:02.862Z,5.50
2018-10-12T09:57:11.666Z,5.93
2018-10-12T10:00:20.309Z,6.17
2018-10-12T10:03:29.177Z,4.30
2018-10-12T10:06:32.824Z,5.47
2018-10-12T10:09:36.464Z,5.73
2018-10-12T10:12:40.066Z,5.57
2018-10-12T10:15:43.654Z,8.60
2018-10-12T10:18:47.285Z,9.20
2018-10-12T10:21:50.947Z,7.90
2018-10-12T10:24:54.623Z,6.53
2018-10-12T10:27:58.247Z,10.17
2018-10-12T10:31:01.810Z,5.10
2018-10-12T10:34:05.506Z,5.10
2018-10-12T10:37:09.067Z,5.03
2018-10-12T10:40:12.736Z,4.70
2018-10-12T10:43:16.351Z,4.10
2018-10-12T10:46:20.038Z,4.33
2018-10-12T10:49:23.556Z,6.03
2018-10-12T10:52:27.119Z,4.63
2018-10-12T10:55:30.610Z,4.20
2018-10-12T10:58:34.256Z,5.30
2018-10-12T11:01:38.078Z,4.67
2018-10-12T11:04:41.629Z,4.10
2018-10-12T11:07:45.191Z,7.10
2018-10-12T11:10:48.977Z,8.43
2018-10-12T11:13:52.610Z,4.60
2018-10-12T11:16:56.131Z,6.50
2018-10-12T11:19:59.665Z,6.13
2018-10-12T11:23:03.286Z,4.80
2018-10-12T11:26:06.950Z,6.73
2018-10-12T11:29:10.737Z,6.73
2018-10-12T11:32:14.386Z,5.30
2018-10-12T11:35:18.017Z,6.60
2018-10-12T11:38:21.705Z,6.20
2018-10-12T11:41:25.356Z,4.70
2018-10-12T11:44:28.954Z,7.00
2018-10-12T11:47:32.480Z,6.17
2018-10-12T11:50:36.052Z,5.40
2018-10-12T11:53:39.694Z,8.97
2018-10-12T11:56:43.297Z,6.73
2018-10-12T11:59:47.197Z,4.93
2018-10-12T12:02:50.872Z,7.23
2018-10-12T12:05:54.951Z,4.17
2018-10-12T12:08:58.205Z,4.93
2018-10-12T12:12:01.821Z,4.60
2018-10-12T12:15:05.557Z,6.13
2018-10-12T12:18:09.228Z,6.80
2018-10-12T12:21:12.780Z,3.90
2018-10-12T12:24:16.427Z,6.13
2018-10-12T12:27:20.032Z,5.93
2018-10-12T12:30:23.813Z,4.87
2018-10-12T12:33:27.365Z,7.10
2018-10-12T12:36:30.943Z,6.80
2018-10-12T12:39:34.888Z,9.80
2018-10-12T12:42:38.615Z,6.13
2018-10-12T12:45:42.392Z,4.77
2018-10-12T12:48:46.339Z,4.87
2018-10-12T12:51:49.666Z,4.33
2018-10-12T12:54:53.259Z,5.13
2018-10-12T12:57:56.896Z,8.00
2018-10-12T13:01:00.493Z,4.40
2018-10-12T13:04:04.292Z,5.93
2018-10-12T13:07:07.997Z,4.00
2018-10-12T13:10:11.781Z,5.70
2018-10-12T13:13:15.530Z,4.33
2018-10-12T13:16:19.192Z,11.50
2018-10-12T13:19:22.776Z,7.30
2018-10-12T13:22:26.390Z,5.27
2018-10-12T13:25:30.003Z,8.90
2018-10-12T13:28:33.571Z,9.47
2018-10-12T13:31:37.391Z,9.00
2018-10-12T13:34:41.087Z,3.70
2018-10-12T13:37:44.820Z,5.77
2018-10-12T13:40:48.446Z,4.23
2018-10-12T13:43:52.142Z,5.20
2018-10-12T13:47:00.971Z,7.30
2018-10-12T13:50:04.735Z,6.83
2018-10-12T13:53:08.370Z,3.53
2018-10-12T13:56:11.958Z,7.67
2018-10-12T13:59:15.622Z,7.20
2018-10-12T14:02:19.228Z,4.40
2018-10-12T14:05:22.735Z,4.20
2018-10-12T14:08:26.545Z,4.80
2018-10-12T14:11:30.162Z,6.57
2018-10-12T14:14:33.847Z,6.57
2018-10-12T14:17:37.626Z,7.37
2018-10-12T14:20:41.218Z,5.37
2018-10-12T14:23:44.843Z,6.57
2018-10-12T14:26:48.572Z,7.10
2018-10-12T14:29:52.147Z,5.10
2018-10-12T14:32:55.728Z,5.53
2018-10-12T14:35:59.417Z,4.27
2018-10-12T14:39:03.031Z,6.57
2018-10-12T14:42:06.898Z,3.60
2018-10-12T14:45:10.530Z,5.93
2018-10-12T14:48:14.293Z,4.23
2018-10-12T14:51:19.356Z,3.90
2018-10-12T14:54:22.962Z,3.87
2018-10-12T14:57:26.582Z,5.93
2018-10-12T15:00:30.167Z,5.37
2018-10-12T15:03:33.755Z,4.53
2018-10-12T15:06:37.396Z,4.73
2018-10-12T15:09:40.912Z,6.10
2018-10-12T15:12:44.469Z,10.33
2018-10-12T15:15:48.166Z,10.07
2018-10-12T15:18:51.817Z,8.53
2018-10-12T15:21:55.481Z,7.77
2018-10-12T15:24:59.067Z,7.43
2018-10-12T15:28:02.828Z,5.30
2018-10-12T15:31:06.437Z,6.30
2018-10-12T15:34:10.003Z,7.33
2018-10-12T15:37:13.853Z,9.40
2018-10-12T15:40:17.539Z,16.60
2018-10-12T15:43:21.211Z,8.27
2018-10-12T15:46:24.882Z,10.70
2018-10-12T15:49:28.887Z,11.77
2018-10-12T15:52:32.627Z,8.80
2018-10-12T15:55:36.303Z,7.77
2018-10-12T15:58:39.946Z,7.17
2018-10-12T16:01:43.669Z,10.23
2018-10-12T16:04:47.631Z,9.63
2018-10-12T16:07:51.349Z,9.53
2018-10-12T16:10:54.987Z,8.07
2018-10-12T16:13:58.663Z,19.70
2018-10-12T16:17:02.348Z,13.10
2018-10-12T16:20:06.111Z,9.80
2018-10-12T16:23:09.835Z,11.30
2018-10-12T16:26:16.709Z,8.23
2018-10-12T16:29:20.322Z,9.60
2018-10-12T16:32:24.232Z,14.10
2018-10-12T16:35:27.773Z,9.57
2018-10-12T16:38:31.639Z,10.63
2018-10-12T16:41:36.178Z,12.67
2018-10-12T16:44:40.648Z,9.93
2018-10-12T16:47:44.430Z,10.80
2018-10-12T16:50:48.651Z,11.07
2018-10-12T16:53:52.441Z,10.53
2018-10-12T16:56:56.093Z,11.30
2018-10-12T16:59:59.875Z,11.40
2018-10-12T17:03:03.561Z,7.70
2018-10-12T17:06:07.177Z,8.83
2018-10-12T17:09:10.756Z,6.70
2018-10-12T17:12:14.371Z,8.43
2018-10-12T17:15:17.937Z,10.50
2018-10-12T17:18:21.695Z,6.70
2018-10-12T17:21:25.206Z,8.97
2018-10-12T17:24:28.892Z,10.23
2018-10-12T17:27:32.498Z,13.47
2018-10-12T17:30:36.150Z,14.13
2018-10-12T17:33:39.665Z,8.00
2018-10-12T17:36:43.411Z,8.43
2018-10-12T17:39:47.146Z,7.17
2018-10-12T17:42:50.803Z,6.90
2018-10-12T17:45:54.842Z,7.20
2018-10-12T17:48:58.608Z,7.30
2018-10-12T17:52:02.300Z,7.60
2018-10-12T17:55:06.418Z,7.70
2018-10-12T17:58:09.937Z,6.50
2018-10-12T18:01:13.592Z,10.87
2018-10-12T18:04:17.440Z,8.27
2018-10-12T18:07:21.042Z,6.27
2018-10-12T18:10:24.678Z,8.87
2018-10-12T18:13:28.357Z,10.50
2018-10-12T18:16:32.209Z,7.20
2018-10-12T18:19:35.896Z,7.60
2018-10-12T18:22:39.607Z,8.13
2018-10-12T18:25:43.405Z,7.57
2018-10-12T18:28:47.232Z,5.93
2018-10-12T18:31:50.907Z,7.93
2018-10-12T18:34:54.677Z,8.10
2018-10-12T18:37:58.512Z,9.80
2018-10-12T18:41:02.293Z,9.30
2018-10-12T18:44:06.007Z,6.47
2018-10-12T18:47:09.917Z,8.10
2018-10-12T18:50:13.924Z,5.60
2018-10-12T18:53:17.677Z,8.20
2018-10-12T18:56:21.352Z,11.30
2018-10-12T18:59:25.070Z,12.60
2018-10-12T19:02:28.724Z,8.00
2018-10-12T19:05:32.522Z,7.67
2018-10-12T19:08:37.533Z,8.33
2018-10-12T19:11:41.684Z,6.87
2018-10-12T19:14:45.384Z,9.10
2018-10-12T19:17:49.207Z,9.43
2018-10-12T19:21:01.743Z,7.90
2018-10-12T19:24:05.566Z,9.20
2018-10-12T19:27:09.220Z,7.27
2018-10-12T19:30:12.933Z,9.23
2018-10-12T19:33:16.671Z,6.30
2018-10-12T19:36:20.447Z,9.10
2018-10-12T19:39:24.135Z,8.47
2018-10-12T19:42:27.841Z,6.60
2018-10-12T19:45:31.540Z,8.53
2018-10-12T19:48:35.255Z,7.97
2018-10-12T19:51:39.267Z,5.90
2018-10-12T19:54:42.984Z,8.80
2018-10-12T19:57:46.696Z,6.70
2018-10-12T20:00:50.502Z,15.40
2018-10-12T20:03:54.319Z,6.63
2018-10-12T20:06:57.949Z,10.20
2018-10-12T20:10:01.650Z,8.10
2018-10-12T20:13:05.419Z,11.00
2018-10-12T20:16:09.288Z,10.13
2018-10-12T20:19:13.149Z,7.97
2018-10-12T20:22:16.803Z,11.73
2018-10-12T20:25:20.565Z,9.53
2018-10-12T20:28:24.323Z,6.87
2018-10-12T20:31:28.253Z,10.30
2018-10-12T20:34:31.893Z,8.53
2018-10-12T20:37:35.664Z,8.90
2018-10-12T20:40:39.440Z,10.30
2018-10-12T20:43:43.314Z,9.50
2018-10-12T20:46:46.954Z,13.83
2018-10-12T20:49:50.954Z,12.70
2018-10-12T20:52:54.537Z,11.53
2018-10-12T20:55:58.182Z,11.80
2018-10-12T20:59:01.809Z,9.47
2018-10-12T21:02:05.524Z,8.27
2018-10-12T21:05:09.230Z,13.10
2018-10-12T21:08:13.049Z,7.63
2018-10-12T21:11:16.764Z,8.13
2018-10-12T21:14:20.820Z,11.90
2018-10-12T21:17:24.486Z,12.37
2018-10-12T21:20:28.099Z,10.93
2018-10-12T21:23:31.864Z,13.40
2018-10-12T21:26:35.548Z,9.80
2018-10-12T21:29:39.249Z,9.73
2018-10-12T21:32:43.031Z,10.57
2018-10-12T21:35:46.632Z,8.77
2018-10-12T21:38:50.284Z,11.90
2018-10-12T21:41:54.001Z,12.27
2018-10-12T21:44:57.668Z,7.83
2018-10-12T21:48:01.534Z,10.10
2018-10-12T21:51:05.178Z,8.20
2018-10-12T21:54:09.058Z,11.03
2018-10-12T21:57:12.723Z,8.63
2018-10-12T22:00:16.543Z,10.63
2018-10-12T22:03:20.224Z,7.70
2018-10-12T22:06:23.822Z,15.97
2018-10-12T22:09:27.559Z,7.17
2018-10-12T22:12:31.334Z,8.57
2018-10-12T22:15:35.002Z,8.10
2018-10-12T22:18:38.652Z,9.03
2018-10-12T22:21:42.133Z,12.10
2018-10-12T22:24:45.952Z,7.93
2018-10-12T22:27:49.446Z,8.57
2018-10-12T22:30:53.057Z,10.23
2018-10-12T22:33:56.652Z,13.90
2018-10-12T22:37:00.250Z,8.60
2018-10-12T22:40:04.183Z,11.03
2018-10-12T22:43:07.906Z,10.80
2018-10-12T22:46:11.503Z,9.37
2018-10-12T22:49:15.033Z,9.40
2018-10-12T22:52:18.629Z,10.03
2018-10-12T22:55:22.214Z,10.23
2018-10-12T22:58:25.776Z,10.53
2018-10-12T23:01:29.357Z,9.33
2018-10-12T23:04:33.013Z,11.37
2018-10-12T23:07:37.213Z,12.07
2018-10-12T23:10:40.747Z,12.73
2018-10-12T23:13:44.314Z,9.13
2018-10-12T23:16:47.921Z,11.50
2018-10-12T23:19:51.495Z,11.37
2018-10-12T23:22:55.104Z,7.93
2018-10-12T23:25:58.699Z,17.33
2018-10-12T23:29:02.243Z,8.43
2018-10-12T23:32:05.857Z,8.07
2018-10-12T23:35:09.371Z,9.93
2018-10-12T23:38:12.872Z,11.50
2018-10-12T23:41:16.517Z,8.37
2018-10-12T23:44:20.047Z,14.80
2018-10-12T23:47:23.784Z,11.90
2018-10-12T23:50:27.987Z,10.17
2018-10-12T23:53:31.623Z,9.90
2018-10-12T23:56:35.169Z,22.20
2018-10-12T23:59:38.638Z,10.47
